Villa General Belgrano, Argentina
Current Conditions -  °F | °C
As of 2:00 PM on Thursday 23 Oct 2014 (Local Time) from SACO Reporting Station
Clear Clear  
Wind Chill: 33°   Ceiling: Unl
Heat Index: 33°   Visibility: 6mi
Dew Point: 12°   Wind: 17mph
Humidity: 28%   Direction: 50°NE
Pressure: 29.97"   Gusts: NA
Location:  31.98°S, 64.57°W
Report Text: SACO 231700Z 05015KT CAVOK 33/12 Q1015
Loading
Personal Weather Stations






























Interactive Weather Map
Tropical Storm Tracking
New forecast layout! Learn more

10-Day Weather Forecast

Advertisements
Track Severe Weather on mobile